sensor_id;sensor_type;location;lat;lon;timestamp;P1;durP1;ratioP1;P2;durP2;ratioP2
15708;SDS011;7954;51.914;8.420;2023-06-14T00:00:04;2.37;;;2.17;;
15708;SDS011;7954;51.914;8.420;2023-06-14T00:02:34;2.13;;;1.93;;
15708;SDS011;7954;51.914;8.420;2023-06-14T00:05:04;3.90;;;2.30;;
15708;SDS011;7954;51.914;8.420;2023-06-14T00:07:36;3.13;;;2.07;;
15708;SDS011;7954;51.914;8.420;2023-06-14T00:10:09;3.43;;;1.90;;
15708;SDS011;7954;51.914;8.420;2023-06-14T00:12:38;2.53;;;1.73;;
15708;SDS011;7954;51.914;8.420;2023-06-14T00:15:07;4.50;;;2.40;;
15708;SDS011;7954;51.914;8.420;2023-06-14T00:17:36;3.40;;;2.00;;
15708;SDS011;7954;51.914;8.420;2023-06-14T00:20:08;4.53;;;1.90;;
15708;SDS011;7954;51.914;8.420;2023-06-14T00:22:37;2.53;;;2.03;;
15708;SDS011;7954;51.914;8.420;2023-06-14T00:25:05;3.67;;;2.80;;
15708;SDS011;7954;51.914;8.420;2023-06-14T00:27:54;2.73;;;1.90;;
15708;SDS011;7954;51.914;8.420;2023-06-14T00:30:23;3.60;;;2.20;;
15708;SDS011;7954;51.914;8.420;2023-06-14T00:32:51;3.53;;;2.30;;
15708;SDS011;7954;51.914;8.420;2023-06-14T00:35:21;3.43;;;2.13;;
15708;SDS011;7954;51.914;8.420;2023-06-14T00:37:50;4.23;;;2.60;;
15708;SDS011;7954;51.914;8.420;2023-06-14T00:40:18;1.90;;;1.80;;
15708;SDS011;7954;51.914;8.420;2023-06-14T00:42:46;7.07;;;2.27;;
15708;SDS011;7954;51.914;8.420;2023-06-14T00:45:14;2.90;;;2.10;;
15708;SDS011;7954;51.914;8.420;2023-06-14T00:47:42;2.67;;;2.00;;
15708;SDS011;7954;51.914;8.420;2023-06-14T00:50:10;2.57;;;2.13;;
15708;SDS011;7954;51.914;8.420;2023-06-14T00:52:41;2.77;;;2.00;;
15708;SDS011;7954;51.914;8.420;2023-06-14T00:55:09;2.23;;;1.90;;
15708;SDS011;7954;51.914;8.420;2023-06-14T00:57:37;3.73;;;2.27;;
15708;SDS011;7954;51.914;8.420;2023-06-14T01:00:06;2.00;;;1.80;;
15708;SDS011;7954;51.914;8.420;2023-06-14T01:02:36;2.67;;;2.20;;
15708;SDS011;7954;51.914;8.420;2023-06-14T01:05:05;1.90;;;1.80;;
15708;SDS011;7954;51.914;8.420;2023-06-14T01:07:38;2.13;;;1.93;;
15708;SDS011;7954;51.914;8.420;2023-06-14T01:10:21;2.67;;;2.10;;
15708;SDS011;7954;51.914;8.420;2023-06-14T01:13:02;3.73;;;2.10;;
15708;SDS011;7954;51.914;8.420;2023-06-14T01:15:35;3.40;;;2.37;;
15708;SDS011;7954;51.914;8.420;2023-06-14T01:18:05;2.07;;;1.83;;
15708;SDS011;7954;51.914;8.420;2023-06-14T01:20:33;2.37;;;1.97;;
15708;SDS011;7954;51.914;8.420;2023-06-14T01:23:06;3.13;;;2.03;;
15708;SDS011;7954;51.914;8.420;2023-06-14T01:25:34;2.27;;;2.07;;
15708;SDS011;7954;51.914;8.420;2023-06-14T01:28:03;2.13;;;1.93;;
15708;SDS011;7954;51.914;8.420;2023-06-14T01:30:36;2.63;;;1.90;;
15708;SDS011;7954;51.914;8.420;2023-06-14T01:33:05;2.20;;;1.80;;
15708;SDS011;7954;51.914;8.420;2023-06-14T01:35:33;2.37;;;2.17;;
15708;SDS011;7954;51.914;8.420;2023-06-14T01:38:02;2.87;;;2.20;;
15708;SDS011;7954;51.914;8.420;2023-06-14T01:40:33;3.63;;;1.80;;
15708;SDS011;7954;51.914;8.420;2023-06-14T01:43:02;2.60;;;2.00;;
15708;SDS011;7954;51.914;8.420;2023-06-14T01:45:31;2.20;;;1.90;;
15708;SDS011;7954;51.914;8.420;2023-06-14T01:48:01;2.87;;;2.23;;
15708;SDS011;7954;51.914;8.420;2023-06-14T01:50:29;3.17;;;2.00;;
15708;SDS011;7954;51.914;8.420;2023-06-14T01:52:57;3.00;;;2.17;;
15708;SDS011;7954;51.914;8.420;2023-06-14T01:55:26;2.23;;;1.87;;
15708;SDS011;7954;51.914;8.420;2023-06-14T01:57:56;4.07;;;2.17;;
15708;SDS011;7954;51.914;8.420;2023-06-14T02:00:26;2.60;;;2.03;;
15708;SDS011;7954;51.914;8.420;2023-06-14T02:02:53;2.70;;;1.70;;
15708;SDS011;7954;51.914;8.420;2023-06-14T02:05:22;2.57;;;1.87;;
15708;SDS011;7954;51.914;8.420;2023-06-14T02:07:50;5.07;;;2.10;;
15708;SDS011;7954;51.914;8.420;2023-06-14T02:10:19;2.00;;;1.80;;
15708;SDS011;7954;51.914;8.420;2023-06-14T02:12:48;1.97;;;1.70;;
15708;SDS011;7954;51.914;8.420;2023-06-14T02:15:17;3.83;;;2.10;;
15708;SDS011;7954;51.914;8.420;2023-06-14T02:17:46;4.13;;;2.00;;
15708;SDS011;7954;51.914;8.420;2023-06-14T02:20:15;5.07;;;2.20;;
15708;SDS011;7954;51.914;8.420;2023-06-14T02:22:44;2.90;;;2.30;;
15708;SDS011;7954;51.914;8.420;2023-06-14T02:25:12;2.23;;;2.03;;
15708;SDS011;7954;51.914;8.420;2023-06-14T02:27:42;2.20;;;1.90;;
15708;SDS011;7954;51.914;8.420;2023-06-14T02:30:10;3.60;;;1.97;;
15708;SDS011;7954;51.914;8.420;2023-06-14T02:32:41;5.27;;;2.00;;
15708;SDS011;7954;51.914;8.420;2023-06-14T02:35:09;2.23;;;1.83;;
15708;SDS011;7954;51.914;8.420;2023-06-14T02:37:37;3.13;;;2.17;;
15708;SDS011;7954;51.914;8.420;2023-06-14T02:40:05;2.70;;;2.00;;
15708;SDS011;7954;51.914;8.420;2023-06-14T02:42:35;2.67;;;2.30;;
15708;SDS011;7954;51.914;8.420;2023-06-14T02:45:03;3.93;;;2.10;;
15708;SDS011;7954;51.914;8.420;2023-06-14T02:47:31;1.93;;;1.80;;
15708;SDS011;7954;51.914;8.420;2023-06-14T02:50:01;3.23;;;2.03;;
15708;SDS011;7954;51.914;8.420;2023-06-14T02:52:30;2.30;;;2.10;;
15708;SDS011;7954;51.914;8.420;2023-06-14T02:54:59;1.93;;;1.67;;
15708;SDS011;7954;51.914;8.420;2023-06-14T02:57:28;3.67;;;2.00;;
15708;SDS011;7954;51.914;8.420;2023-06-14T02:59:56;2.73;;;2.20;;
15708;SDS011;7954;51.914;8.420;2023-06-14T03:02:24;2.80;;;2.40;;
15708;SDS011;7954;51.914;8.420;2023-06-14T03:04:52;2.77;;;2.30;;
15708;SDS011;7954;51.914;8.420;2023-06-14T03:07:22;3.07;;;1.77;;
15708;SDS011;7954;51.914;8.420;2023-06-14T03:09:51;2.37;;;1.97;;
15708;SDS011;7954;51.914;8.420;2023-06-14T03:12:20;2.17;;;1.90;;
15708;SDS011;7954;51.914;8.420;2023-06-14T03:14:48;1.90;;;1.80;;
15708;SDS011;7954;51.914;8.420;2023-06-14T03:17:17;2.63;;;1.93;;
15708;SDS011;7954;51.914;8.420;2023-06-14T03:19:45;2.87;;;2.00;;
15708;SDS011;7954;51.914;8.420;2023-06-14T03:22:14;2.70;;;2.00;;
15708;SDS011;7954;51.914;8.420;2023-06-14T03:24:44;2.00;;;1.90;;
15708;SDS011;7954;51.914;8.420;2023-06-14T03:27:11;3.30;;;2.67;;
15708;SDS011;7954;51.914;8.420;2023-06-14T03:29:40;4.63;;;2.10;;
15708;SDS011;7954;51.914;8.420;2023-06-14T03:32:08;3.07;;;2.00;;
15708;SDS011;7954;51.914;8.420;2023-06-14T03:34:36;2.93;;;1.80;;
15708;SDS011;7954;51.914;8.420;2023-06-14T03:37:05;2.73;;;1.90;;
15708;SDS011;7954;51.914;8.420;2023-06-14T03:39:33;2.60;;;2.10;;
15708;SDS011;7954;51.914;8.420;2023-06-14T03:42:02;1.70;;;1.60;;
15708;SDS011;7954;51.914;8.420;2023-06-14T03:44:31;3.50;;;2.00;;
15708;SDS011;7954;51.914;8.420;2023-06-14T03:46:59;6.03;;;2.23;;
15708;SDS011;7954;51.914;8.420;2023-06-14T03:49:28;3.43;;;2.10;;
15708;SDS011;7954;51.914;8.420;2023-06-14T03:51:55;3.13;;;2.20;;
15708;SDS011;7954;51.914;8.420;2023-06-14T03:54:23;2.83;;;2.00;;
15708;SDS011;7954;51.914;8.420;2023-06-14T03:56:55;2.17;;;1.90;;
15708;SDS011;7954;51.914;8.420;2023-06-14T03:59:26;3.97;;;1.80;;
15708;SDS011;7954;51.914;8.420;2023-06-14T04:01:54;2.03;;;1.80;;
15708;SDS011;7954;51.914;8.420;2023-06-14T04:04:22;2.00;;;1.87;;
15708;SDS011;7954;51.914;8.420;2023-06-14T04:06:56;2.10;;;1.90;;
15708;SDS011;7954;51.914;8.420;2023-06-14T04:09:24;4.30;;;2.47;;
15708;SDS011;7954;51.914;8.420;2023-06-14T04:11:53;2.97;;;1.80;;
15708;SDS011;7954;51.914;8.420;2023-06-14T04:14:21;2.47;;;1.80;;
15708;SDS011;7954;51.914;8.420;2023-06-14T04:16:51;2.20;;;1.80;;
15708;SDS011;7954;51.914;8.420;2023-06-14T04:19:19;2.87;;;1.90;;
15708;SDS011;7954;51.914;8.420;2023-06-14T04:21:47;3.80;;;1.80;;
15708;SDS011;7954;51.914;8.420;2023-06-14T04:24:14;3.90;;;1.77;;
15708;SDS011;7954;51.914;8.420;2023-06-14T04:26:43;2.20;;;1.97;;
15708;SDS011;7954;51.914;8.420;2023-06-14T04:29:14;3.70;;;1.70;;
15708;SDS011;7954;51.914;8.420;2023-06-14T04:31:46;2.20;;;1.90;;
15708;SDS011;7954;51.914;8.420;2023-06-14T04:34:15;1.80;;;1.70;;
15708;SDS011;7954;51.914;8.420;2023-06-14T04:36:44;1.97;;;1.70;;
15708;SDS011;7954;51.914;8.420;2023-06-14T04:39:15;3.70;;;2.13;;
15708;SDS011;7954;51.914;8.420;2023-06-14T04:41:44;2.03;;;1.83;;
15708;SDS011;7954;51.914;8.420;2023-06-14T04:44:13;2.70;;;1.70;;
15708;SDS011;7954;51.914;8.420;2023-06-14T04:46:43;2.00;;;1.60;;
15708;SDS011;7954;51.914;8.420;2023-06-14T04:49:13;2.50;;;1.70;;
15708;SDS011;7954;51.914;8.420;2023-06-14T04:51:43;1.90;;;1.63;;
15708;SDS011;7954;51.914;8.420;2023-06-14T04:54:13;2.13;;;1.63;;
15708;SDS011;7954;51.914;8.420;2023-06-14T04:56:41;2.20;;;1.90;;
15708;SDS011;7954;51.914;8.420;2023-06-14T04:59:10;1.87;;;1.73;;
15708;SDS011;7954;51.914;8.420;2023-06-14T05:01:39;2.23;;;1.87;;
15708;SDS011;7954;51.914;8.420;2023-06-14T05:04:07;3.67;;;2.00;;
15708;SDS011;7954;51.914;8.420;2023-06-14T05:06:35;2.70;;;1.90;;
15708;SDS011;7954;51.914;8.420;2023-06-14T05:09:04;3.67;;;1.97;;
15708;SDS011;7954;51.914;8.420;2023-06-14T05:11:32;3.53;;;1.93;;
15708;SDS011;7954;51.914;8.420;2023-06-14T05:14:00;4.33;;;2.40;;
15708;SDS011;7954;51.914;8.420;2023-06-14T05:16:28;2.87;;;2.50;;
15708;SDS011;7954;51.914;8.420;2023-06-14T05:18:56;4.20;;;2.63;;
15708;SDS011;7954;51.914;8.420;2023-06-14T05:21:24;4.03;;;2.67;;
15708;SDS011;7954;51.914;8.420;2023-06-14T05:23:52;5.27;;;2.63;;
15708;SDS011;7954;51.914;8.420;2023-06-14T05:26:22;5.63;;;2.33;;
15708;SDS011;7954;51.914;8.420;2023-06-14T05:28:54;3.00;;;2.33;;
15708;SDS011;7954;51.914;8.420;2023-06-14T05:31:23;3.03;;;2.10;;
15708;SDS011;7954;51.914;8.420;2023-06-14T05:33:53;2.90;;;1.80;;
15708;SDS011;7954;51.914;8.420;2023-06-14T05:36:21;3.07;;;2.20;;
15708;SDS011;7954;51.914;8.420;2023-06-14T05:38:50;1.80;;;1.70;;
15708;SDS011;7954;51.914;8.420;2023-06-14T05:41:25;2.03;;;1.80;;
15708;SDS011;7954;51.914;8.420;2023-06-14T05:43:54;2.50;;;1.70;;
15708;SDS011;7954;51.914;8.420;2023-06-14T05:46:23;3.67;;;1.80;;
15708;SDS011;7954;51.914;8.420;2023-06-14T05:48:52;2.80;;;2.13;;
15708;SDS011;7954;51.914;8.420;2023-06-14T05:51:21;1.93;;;1.60;;
15708;SDS011;7954;51.914;8.420;2023-06-14T05:53:51;4.93;;;1.90;;
15708;SDS011;7954;51.914;8.420;2023-06-14T05:56:20;3.33;;;2.27;;
15708;SDS011;7954;51.914;8.420;2023-06-14T05:58:50;2.03;;;1.83;;
15708;SDS011;7954;51.914;8.420;2023-06-14T06:01:18;1.90;;;1.80;;
15708;SDS011;7954;51.914;8.420;2023-06-14T06:03:46;2.00;;;1.80;;
15708;SDS011;7954;51.914;8.420;2023-06-14T06:06:14;2.20;;;1.43;;
15708;SDS011;7954;51.914;8.420;2023-06-14T06:08:42;1.77;;;1.63;;
15708;SDS011;7954;51.914;8.420;2023-06-14T06:11:10;1.70;;;1.60;;
15708;SDS011;7954;51.914;8.420;2023-06-14T06:13:38;2.73;;;1.50;;
15708;SDS011;7954;51.914;8.420;2023-06-14T06:16:09;1.70;;;1.60;;
15708;SDS011;7954;51.914;8.420;2023-06-14T06:18:36;3.53;;;1.80;;
15708;SDS011;7954;51.914;8.420;2023-06-14T06:21:05;1.83;;;1.57;;
15708;SDS011;7954;51.914;8.420;2023-06-14T06:23:33;1.67;;;1.57;;
15708;SDS011;7954;51.914;8.420;2023-06-14T06:26:02;1.97;;;1.47;;
15708;SDS011;7954;51.914;8.420;2023-06-14T06:28:30;2.90;;;1.50;;
15708;SDS011;7954;51.914;8.420;2023-06-14T06:30:58;1.83;;;1.73;;
15708;SDS011;7954;51.914;8.420;2023-06-14T06:33:31;1.70;;;1.50;;
15708;SDS011;7954;51.914;8.420;2023-06-14T06:35:59;3.10;;;1.50;;
15708;SDS011;7954;51.914;8.420;2023-06-14T06:38:27;1.40;;;1.30;;
15708;SDS011;7954;51.914;8.420;2023-06-14T06:40:55;2.23;;;1.40;;
15708;SDS011;7954;51.914;8.420;2023-06-14T06:43:23;3.17;;;1.40;;
15708;SDS011;7954;51.914;8.420;2023-06-14T06:45:51;1.50;;;1.20;;
15708;SDS011;7954;51.914;8.420;2023-06-14T06:48:19;2.80;;;1.27;;
15708;SDS011;7954;51.914;8.420;2023-06-14T06:50:48;1.40;;;1.30;;
15708;SDS011;7954;51.914;8.420;2023-06-14T06:53:17;1.50;;;1.33;;
15708;SDS011;7954;51.914;8.420;2023-06-14T06:56:00;1.50;;;1.40;;
15708;SDS011;7954;51.914;8.420;2023-06-14T06:58:28;1.30;;;1.20;;
15708;SDS011;7954;51.914;8.420;2023-06-14T07:00:56;1.40;;;1.30;;
15708;SDS011;7954;51.914;8.420;2023-06-14T07:03:23;1.30;;;1.10;;
15708;SDS011;7954;51.914;8.420;2023-06-14T07:05:53;3.43;;;1.40;;
15708;SDS011;7954;51.914;8.420;2023-06-14T07:08:21;2.23;;;1.63;;
15708;SDS011;7954;51.914;8.420;2023-06-14T07:10:49;1.40;;;1.30;;
15708;SDS011;7954;51.914;8.420;2023-06-14T07:13:18;1.60;;;1.50;;
15708;SDS011;7954;51.914;8.420;2023-06-14T07:15:47;1.47;;;1.37;;
15708;SDS011;7954;51.914;8.420;2023-06-14T07:18:15;1.43;;;1.33;;
15708;SDS011;7954;51.914;8.420;2023-06-14T07:20:43;3.00;;;1.70;;
15708;SDS011;7954;51.914;8.420;2023-06-14T07:23:12;1.30;;;1.20;;
15708;SDS011;7954;51.914;8.420;2023-06-14T07:25:41;1.43;;;1.20;;
15708;SDS011;7954;51.914;8.420;2023-06-14T07:28:08;1.20;;;1.20;;
15708;SDS011;7954;51.914;8.420;2023-06-14T07:30:36;1.50;;;1.40;;
15708;SDS011;7954;51.914;8.420;2023-06-14T07:33:04;1.47;;;1.37;;
15708;SDS011;7954;51.914;8.420;2023-06-14T07:35:32;1.90;;;1.63;;
15708;SDS011;7954;51.914;8.420;2023-06-14T07:38:01;1.53;;;1.43;;
15708;SDS011;7954;51.914;8.420;2023-06-14T07:40:30;1.60;;;1.50;;
15708;SDS011;7954;51.914;8.420;2023-06-14T07:42:58;1.50;;;1.40;;
15708;SDS011;7954;51.914;8.420;2023-06-14T07:45:27;2.20;;;1.57;;
15708;SDS011;7954;51.914;8.420;2023-06-14T07:47:55;6.03;;;2.80;;
15708;SDS011;7954;51.914;8.420;2023-06-14T07:50:24;4.83;;;2.33;;
15708;SDS011;7954;51.914;8.420;2023-06-14T07:52:51;3.87;;;2.63;;
15708;SDS011;7954;51.914;8.420;2023-06-14T07:55:19;2.97;;;2.60;;
15708;SDS011;7954;51.914;8.420;2023-06-14T07:57:50;1.73;;;1.50;;
15708;SDS011;7954;51.914;8.420;2023-06-14T08:00:18;7.17;;;2.90;;
15708;SDS011;7954;51.914;8.420;2023-06-14T08:02:46;5.20;;;3.20;;
15708;SDS011;7954;51.914;8.420;2023-06-14T08:05:15;6.93;;;4.10;;
15708;SDS011;7954;51.914;8.420;2023-06-14T08:07:43;2.27;;;1.97;;
15708;SDS011;7954;51.914;8.420;2023-06-14T08:10:11;3.57;;;2.97;;
15708;SDS011;7954;51.914;8.420;2023-06-14T08:12:39;2.83;;;1.60;;
15708;SDS011;7954;51.914;8.420;2023-06-14T08:15:09;2.23;;;1.27;;
15708;SDS011;7954;51.914;8.420;2023-06-14T08:17:40;1.50;;;1.40;;
15708;SDS011;7954;51.914;8.420;2023-06-14T08:20:10;2.93;;;1.40;;
15708;SDS011;7954;51.914;8.420;2023-06-14T08:22:38;2.33;;;1.53;;
15708;SDS011;7954;51.914;8.420;2023-06-14T08:25:08;2.37;;;1.50;;
15708;SDS011;7954;51.914;8.420;2023-06-14T08:27:37;1.17;;;1.10;;
15708;SDS011;7954;51.914;8.420;2023-06-14T08:30:05;1.50;;;1.33;;
15708;SDS011;7954;51.914;8.420;2023-06-14T08:32:36;1.70;;;1.60;;
15708;SDS011;7954;51.914;8.420;2023-06-14T08:35:04;1.90;;;1.40;;
15708;SDS011;7954;51.914;8.420;2023-06-14T08:37:37;2.47;;;1.23;;
15708;SDS011;7954;51.914;8.420;2023-06-14T08:40:06;1.67;;;1.57;;
15708;SDS011;7954;51.914;8.420;2023-06-14T08:42:47;3.17;;;1.47;;
15708;SDS011;7954;51.914;8.420;2023-06-14T08:45:19;2.20;;;1.30;;
15708;SDS011;7954;51.914;8.420;2023-06-14T08:47:53;2.20;;;1.40;;
15708;SDS011;7954;51.914;8.420;2023-06-14T08:50:25;3.50;;;1.60;;
15708;SDS011;7954;51.914;8.420;2023-06-14T08:52:57;1.40;;;1.30;;
15708;SDS011;7954;51.914;8.420;2023-06-14T08:55:27;1.60;;;1.50;;
15708;SDS011;7954;51.914;8.420;2023-06-14T08:57:59;2.73;;;1.50;;
15708;SDS011;7954;51.914;8.420;2023-06-14T09:00:30;1.40;;;1.30;;
15708;SDS011;7954;51.914;8.420;2023-06-14T09:03:01;1.50;;;1.40;;
15708;SDS011;7954;51.914;8.420;2023-06-14T09:05:30;1.80;;;1.40;;
15708;SDS011;7954;51.914;8.420;2023-06-14T09:07:58;1.40;;;1.30;;
15708;SDS011;7954;51.914;8.420;2023-06-14T09:10:32;1.83;;;1.67;;
15708;SDS011;7954;51.914;8.420;2023-06-14T09:13:02;2.23;;;1.50;;
15708;SDS011;7954;51.914;8.420;2023-06-14T09:15:31;2.47;;;1.37;;
15708;SDS011;7954;51.914;8.420;2023-06-14T09:18:01;2.97;;;1.63;;
15708;SDS011;7954;51.914;8.420;2023-06-14T09:20:30;1.80;;;1.70;;
15708;SDS011;7954;51.914;8.420;2023-06-14T09:23:00;1.87;;;1.67;;
15708;SDS011;7954;51.914;8.420;2023-06-14T09:25:28;1.70;;;1.60;;
15708;SDS011;7954;51.914;8.420;2023-06-14T09:28:06;3.80;;;1.60;;
15708;SDS011;7954;51.914;8.420;2023-06-14T09:30:35;1.60;;;1.50;;
15708;SDS011;7954;51.914;8.420;2023-06-14T09:33:05;1.70;;;1.53;;
15708;SDS011;7954;51.914;8.420;2023-06-14T09:35:34;2.27;;;1.90;;
15708;SDS011;7954;51.914;8.420;2023-06-14T09:38:02;3.10;;;1.60;;
15708;SDS011;7954;51.914;8.420;2023-06-14T09:40:34;1.70;;;1.60;;
15708;SDS011;7954;51.914;8.420;2023-06-14T09:43:04;1.20;;;1.20;;
15708;SDS011;7954;51.914;8.420;2023-06-14T09:45:34;1.60;;;1.40;;
15708;SDS011;7954;51.914;8.420;2023-06-14T09:48:05;1.73;;;1.50;;
15708;SDS011;7954;51.914;8.420;2023-06-14T09:50:34;1.63;;;1.50;;
15708;SDS011;7954;51.914;8.420;2023-06-14T09:53:03;3.10;;;1.50;;
15708;SDS011;7954;51.914;8.420;2023-06-14T09:55:34;2.50;;;1.80;;
15708;SDS011;7954;51.914;8.420;2023-06-14T09:58:04;1.40;;;1.30;;
15708;SDS011;7954;51.914;8.420;2023-06-14T10:00:34;1.87;;;1.70;;
15708;SDS011;7954;51.914;8.420;2023-06-14T10:03:05;2.67;;;1.60;;
15708;SDS011;7954;51.914;8.420;2023-06-14T10:05:39;1.70;;;1.60;;
15708;SDS011;7954;51.914;8.420;2023-06-14T10:08:09;1.93;;;1.50;;
15708;SDS011;7954;51.914;8.420;2023-06-14T10:10:42;1.60;;;1.50;;
15708;SDS011;7954;51.914;8.420;2023-06-14T10:13:10;1.60;;;1.50;;
15708;SDS011;7954;51.914;8.420;2023-06-14T10:15:41;1.50;;;1.40;;
15708;SDS011;7954;51.914;8.420;2023-06-14T10:18:17;1.70;;;1.60;;
15708;SDS011;7954;51.914;8.420;2023-06-14T10:20:53;2.50;;;1.60;;
15708;SDS011;7954;51.914;8.420;2023-06-14T10:23:31;2.00;;;1.80;;
15708;SDS011;7954;51.914;8.420;2023-06-14T10:26:03;1.93;;;1.50;;
15708;SDS011;7954;51.914;8.420;2023-06-14T10:28:32;2.67;;;1.70;;
15708;SDS011;7954;51.914;8.420;2023-06-14T10:31:06;2.50;;;1.70;;
15708;SDS011;7954;51.914;8.420;2023-06-14T10:33:48;1.70;;;1.60;;
15708;SDS011;7954;51.914;8.420;2023-06-14T10:36:25;1.60;;;1.50;;
15708;SDS011;7954;51.914;8.420;2023-06-14T10:38:56;1.70;;;1.60;;
15708;SDS011;7954;51.914;8.420;2023-06-14T10:41:26;1.83;;;1.73;;
15708;SDS011;7954;51.914;8.420;2023-06-14T10:46:59;2.40;;;1.70;;
15708;SDS011;7954;51.914;8.420;2023-06-14T10:49:37;2.40;;;1.80;;
15708;SDS011;7954;51.914;8.420;2023-06-14T10:52:12;1.67;;;1.53;;
15708;SDS011;7954;51.914;8.420;2023-06-14T10:55:01;1.87;;;1.67;;
15708;SDS011;7954;51.914;8.420;2023-06-14T10:57:38;1.70;;;1.60;;
15708;SDS011;7954;51.914;8.420;2023-06-14T11:00:10;3.30;;;2.00;;
15708;SDS011;7954;51.914;8.420;2023-06-14T11:02:51;2.33;;;1.87;;
15708;SDS011;7954;51.914;8.420;2023-06-14T11:05:25;2.17;;;1.80;;
15708;SDS011;7954;51.914;8.420;2023-06-14T11:07:58;2.03;;;1.70;;
15708;SDS011;7954;51.914;8.420;2023-06-14T11:10:43;1.80;;;1.70;;
15708;SDS011;7954;51.914;8.420;2023-06-14T11:13:12;2.33;;;1.70;;
15708;SDS011;7954;51.914;8.420;2023-06-14T11:15:43;2.03;;;1.83;;
15708;SDS011;7954;51.914;8.420;2023-06-14T11:18:13;1.80;;;1.70;;
15708;SDS011;7954;51.914;8.420;2023-06-14T11:20:45;4.40;;;1.93;;
15708;SDS011;7954;51.914;8.420;2023-06-14T11:23:13;2.87;;;1.43;;
15708;SDS011;7954;51.914;8.420;2023-06-14T11:25:42;2.50;;;1.77;;
15708;SDS011;7954;51.914;8.420;2023-06-14T11:28:10;2.50;;;2.00;;
15708;SDS011;7954;51.914;8.420;2023-06-14T11:30:37;2.03;;;1.70;;
15708;SDS011;7954;51.914;8.420;2023-06-14T11:33:09;1.83;;;1.70;;
15708;SDS011;7954;51.914;8.420;2023-06-14T11:35:37;2.13;;;1.70;;
15708;SDS011;7954;51.914;8.420;2023-06-14T11:38:07;1.80;;;1.70;;
15708;SDS011;7954;51.914;8.420;2023-06-14T11:40:37;2.97;;;1.70;;
15708;SDS011;7954;51.914;8.420;2023-06-14T11:43:06;1.67;;;1.58;;
15708;SDS011;7954;51.914;8.420;2023-06-14T11:45:34;2.10;;;1.80;;
15708;SDS011;7954;51.914;8.420;2023-06-14T11:48:03;2.00;;;1.90;;
15708;SDS011;7954;51.914;8.420;2023-06-14T11:50:31;3.35;;;1.88;;
15708;SDS011;7954;51.914;8.420;2023-06-14T11:52:59;1.60;;;1.50;;
15708;SDS011;7954;51.914;8.420;2023-06-14T11:55:36;1.50;;;1.40;;
15708;SDS011;7954;51.914;8.420;2023-06-14T11:58:05;3.20;;;1.60;;
15708;SDS011;7954;51.914;8.420;2023-06-14T12:00:35;2.13;;;1.60;;
15708;SDS011;7954;51.914;8.420;2023-06-14T12:03:03;1.60;;;1.50;;
15708;SDS011;7954;51.914;8.420;2023-06-14T12:05:32;1.70;;;1.60;;
15708;SDS011;7954;51.914;8.420;2023-06-14T12:08:02;2.03;;;1.70;;
15708;SDS011;7954;51.914;8.420;2023-06-14T12:10:40;2.00;;;1.70;;
15708;SDS011;7954;51.914;8.420;2023-06-14T12:13:10;3.85;;;1.70;;
15708;SDS011;7954;51.914;8.420;2023-06-14T12:15:38;2.35;;;1.80;;
15708;SDS011;7954;51.914;8.420;2023-06-14T12:18:06;1.70;;;1.60;;
15708;SDS011;7954;51.914;8.420;2023-06-14T12:20:35;1.80;;;1.70;;
15708;SDS011;7954;51.914;8.420;2023-06-14T12:23:04;2.25;;;2.05;;
15708;SDS011;7954;51.914;8.420;2023-06-14T12:25:32;1.67;;;1.58;;
15708;SDS011;7954;51.914;8.420;2023-06-14T12:28:05;1.67;;;1.58;;
15708;SDS011;7954;51.914;8.420;2023-06-14T12:30:35;3.05;;;1.50;;
15708;SDS011;7954;51.914;8.420;2023-06-14T12:33:04;1.60;;;1.50;;
15708;SDS011;7954;51.914;8.420;2023-06-14T12:35:34;2.50;;;1.80;;
15708;SDS011;7954;51.914;8.420;2023-06-14T12:38:02;1.88;;;1.60;;
15708;SDS011;7954;51.914;8.420;2023-06-14T12:40:30;2.08;;;1.50;;
15708;SDS011;7954;51.914;8.420;2023-06-14T12:42:59;1.50;;;1.40;;
15708;SDS011;7954;51.914;8.420;2023-06-14T12:45:28;1.40;;;1.30;;
15708;SDS011;7954;51.914;8.420;2023-06-14T12:47:56;2.50;;;1.60;;
15708;SDS011;7954;51.914;8.420;2023-06-14T12:50:24;1.83;;;1.73;;
15708;SDS011;7954;51.914;8.420;2023-06-14T12:52:53;3.17;;;1.60;;
15708;SDS011;7954;51.914;8.420;2023-06-14T12:55:20;1.77;;;1.67;;
15708;SDS011;7954;51.914;8.420;2023-06-14T12:57:48;1.63;;;1.52;;
15708;SDS011;7954;51.914;8.420;2023-06-14T13:00:18;3.03;;;1.50;;
15708;SDS011;7954;51.914;8.420;2023-06-14T13:02:49;3.22;;;1.65;;
15708;SDS011;7954;51.914;8.420;2023-06-14T13:05:18;1.95;;;1.75;;
15708;SDS011;7954;51.914;8.420;2023-06-14T13:07:46;3.30;;;1.63;;
15708;SDS011;7954;51.914;8.420;2023-06-14T13:10:14;1.88;;;1.70;;
15708;SDS011;7954;51.914;8.420;2023-06-14T13:12:44;2.33;;;1.73;;
15708;SDS011;7954;51.914;8.420;2023-06-14T13:15:13;3.08;;;1.75;;
15708;SDS011;7954;51.914;8.420;2023-06-14T13:17:41;2.00;;;1.90;;
15708;SDS011;7954;51.914;8.420;2023-06-14T13:20:11;1.50;;;1.40;;
15708;SDS011;7954;51.914;8.420;2023-06-14T13:22:41;1.83;;;1.50;;
15708;SDS011;7954;51.914;8.420;2023-06-14T13:25:09;5.50;;;1.90;;
15708;SDS011;7954;51.914;8.420;2023-06-14T13:27:37;2.60;;;1.55;;
15708;SDS011;7954;51.914;8.420;2023-06-14T13:30:08;1.70;;;1.60;;
15708;SDS011;7954;51.914;8.420;2023-06-14T13:32:37;2.50;;;1.85;;
15708;SDS011;7954;51.914;8.420;2023-06-14T13:35:05;2.45;;;1.95;;
15708;SDS011;7954;51.914;8.420;2023-06-14T13:37:34;2.13;;;1.92;;
15708;SDS011;7954;51.914;8.420;2023-06-14T13:40:02;2.25;;;1.60;;
15708;SDS011;7954;51.914;8.420;2023-06-14T13:42:31;2.10;;;1.65;;
15708;SDS011;7954;51.914;8.420;2023-06-14T13:44:59;4.07;;;1.73;;
15708;SDS011;7954;51.914;8.420;2023-06-14T13:47:26;3.83;;;1.80;;
15708;SDS011;7954;51.914;8.420;2023-06-14T13:49:54;1.65;;;1.55;;
15708;SDS011;7954;51.914;8.420;2023-06-14T13:52:22;2.30;;;1.80;;
15708;SDS011;7954;51.914;8.420;2023-06-14T13:54:52;1.77;;;1.65;;
15708;SDS011;7954;51.914;8.420;2023-06-14T13:57:20;2.47;;;1.55;;
15708;SDS011;7954;51.914;8.420;2023-06-14T13:59:48;2.83;;;1.75;;
15708;SDS011;7954;51.914;8.420;2023-06-14T14:02:16;1.70;;;1.60;;
15708;SDS011;7954;51.914;8.420;2023-06-14T14:04:44;2.35;;;1.50;;
15708;SDS011;7954;51.914;8.420;2023-06-14T14:07:17;1.48;;;1.38;;
15708;SDS011;7954;51.914;8.420;2023-06-14T14:09:45;1.92;;;1.50;;
15708;SDS011;7954;51.914;8.420;2023-06-14T14:12:16;3.15;;;1.50;;
15708;SDS011;7954;51.914;8.420;2023-06-14T14:14:44;1.60;;;1.50;;
15708;SDS011;7954;51.914;8.420;2023-06-14T14:17:12;1.63;;;1.52;;
15708;SDS011;7954;51.914;8.420;2023-06-14T14:19:40;2.25;;;1.70;;
15708;SDS011;7954;51.914;8.420;2023-06-14T14:22:08;2.17;;;1.45;;
15708;SDS011;7954;51.914;8.420;2023-06-14T14:24:36;2.45;;;1.40;;
15708;SDS011;7954;51.914;8.420;2023-06-14T14:27:07;1.50;;;1.40;;
15708;SDS011;7954;51.914;8.420;2023-06-14T14:29:36;4.57;;;1.48;;
15708;SDS011;7954;51.914;8.420;2023-06-14T14:32:04;2.88;;;1.75;;
15708;SDS011;7954;51.914;8.420;2023-06-14T14:34:33;1.60;;;1.50;;
15708;SDS011;7954;51.914;8.420;2023-06-14T14:37:01;1.67;;;1.50;;
15708;SDS011;7954;51.914;8.420;2023-06-14T14:39:29;1.50;;;1.40;;
15708;SDS011;7954;51.914;8.420;2023-06-14T14:41:57;1.58;;;1.48;;
15708;SDS011;7954;51.914;8.420;2023-06-14T14:44:25;1.60;;;1.50;;
15708;SDS011;7954;51.914;8.420;2023-06-14T14:46:54;2.28;;;1.70;;
15708;SDS011;7954;51.914;8.420;2023-06-14T14:49:22;1.70;;;1.60;;
15708;SDS011;7954;51.914;8.420;2023-06-14T14:51:50;1.63;;;1.52;;
15708;SDS011;7954;51.914;8.420;2023-06-14T14:54:18;1.75;;;1.65;;
15708;SDS011;7954;51.914;8.420;2023-06-14T14:56:46;1.77;;;1.60;;
15708;SDS011;7954;51.914;8.420;2023-06-14T14:59:15;2.25;;;2.05;;
15708;SDS011;7954;51.914;8.420;2023-06-14T15:01:45;2.20;;;2.10;;
15708;SDS011;7954;51.914;8.420;2023-06-14T15:04:15;1.90;;;1.80;;
15708;SDS011;7954;51.914;8.420;2023-06-14T15:06:43;2.63;;;1.77;;
15708;SDS011;7954;51.914;8.420;2023-06-14T15:09:11;1.90;;;1.75;;
15708;SDS011;7954;51.914;8.420;2023-06-14T15:11:39;5.20;;;2.03;;
15708;SDS011;7954;51.914;8.420;2023-06-14T15:14:07;2.00;;;1.90;;
15708;SDS011;7954;51.914;8.420;2023-06-14T15:16:36;2.00;;;1.80;;